Weather at Austin Municipal Airport

Public forecast

Using degrees Fahrenheit for public forecast. Weather courtesy of forecast.io.

Current aviation weather report (METAR) for Austin Municipal Airport

2024/04/21 19:55 (retrieved 20 minutes ago)

KAUM 211955Z AUTO 28012G17KT 10SM CLR 14/M04 A3015 RMK AO2

Closest aviation forecast (TAF) to Austin Municipal Airport

Closest forecast is Rochester International Airport, 23.8 nm (44.1 km) NE.

2024/04/21 18:24 (retrieved 2 hours ago)

TAF KRST 211723Z 2118/2218 29013G22KT P6SM SKC FM220000 21007KT P6SM SKC FM221300 21012KT P6SM SCT200 FM221600 21016G25KT P6SM SCT150